Terminal Aerodrome Forecast
Issued by NWS

Home | Current Version | Previous Version | Text Only | Print | Product List | Glossary On
Versions: 1 2 3 4 5 6 7 8 9 10 11 12 13 14 15 16 17 18 19 20 21 22 23 24 25 26
000
FTUS44 KOUN 282320
TAFPNC
TAF
KPNC 282320Z 2900/2924 VRB10KT P6SM VCSH SCT035 BKN070
     FM290700 18009KT 6SM TSRA OVC030CB
     FM291500 15007KT P6SM BKN100 OVC180 PROB30 2920/2924 5SM TSRA
      OVC040CB=

USA.gov is the U.S. government's official web portal to all federal, state and local government web resources and services.